createdAt,value
2019-04-29T14:01:32.910Z,65.70
2019-04-29T14:03:56.258Z,48.30
2019-04-29T14:06:25.102Z,45.20
2019-04-29T14:08:55.230Z,43.60
2019-04-29T14:11:27.273Z,42.00
2019-04-29T14:13:55.890Z,40.80
2019-04-29T14:16:25.085Z,39.90
2019-04-29T14:18:54.346Z,38.70
2019-04-29T14:21:25.599Z,38.30
2019-04-29T14:23:54.045Z,37.80
2019-04-29T14:26:23.249Z,37.30
2019-04-29T14:28:52.470Z,37.30
2019-04-29T14:31:22.769Z,37.30
2019-04-29T14:33:55.890Z,37.10
2019-04-29T14:36:26.480Z,36.60
2019-04-29T14:39:18.952Z,36.10
2019-04-29T14:41:56.471Z,36.20
2019-04-29T14:44:31.395Z,36.00
2019-04-29T14:49:47.468Z,37.40
2019-04-29T14:52:18.322Z,37.10
2019-04-29T14:54:47.604Z,37.30
2019-04-29T14:57:16.722Z,38.20
2019-04-29T14:59:45.925Z,40.80
2019-04-29T15:02:17.389Z,40.60
2019-04-29T15:04:54.553Z,39.80
2019-04-29T15:07:31.765Z,39.80
2019-04-29T15:10:13.176Z,40.20
2019-04-29T15:12:52.109Z,40.20
2019-04-29T15:15:21.801Z,40.00
2019-04-29T15:17:52.239Z,40.40
2019-04-29T15:20:31.968Z,40.30
2019-04-29T15:23:01.141Z,40.30
2019-04-29T15:25:36.646Z,40.00
2019-04-29T15:28:03.342Z,39.80
2019-04-29T15:30:36.736Z,40.20
2019-04-29T15:33:02.910Z,39.70
2019-04-29T15:35:33.595Z,41.30
2019-04-29T15:38:02.781Z,43.90
2019-04-29T15:40:32.184Z,47.00
2019-04-29T15:43:01.520Z,46.10
2019-04-29T15:45:32.817Z,43.60
2019-04-29T15:48:05.937Z,42.20
2019-04-29T15:50:44.119Z,41.00
2019-04-29T15:53:15.278Z,40.70
2019-04-29T15:55:45.824Z,41.10
2019-04-29T15:58:15.392Z,39.30
2019-04-29T16:00:44.722Z,38.30
2019-04-29T16:03:17.912Z,38.10
2019-04-29T16:06:10.843Z,38.20
2019-04-29T16:08:16.789Z,37.90
2019-04-29T16:10:46.036Z,38.10
2019-04-29T16:13:16.550Z,38.00
2019-04-29T16:15:47.152Z,38.10
2019-04-29T16:18:16.892Z,38.60
2019-04-29T16:20:53.342Z,38.70
2019-04-29T16:23:17.860Z,38.50
2019-04-29T16:25:52.229Z,37.70
2019-04-29T16:28:24.265Z,37.70
2019-04-29T16:30:50.480Z,38.10
2019-04-29T16:33:19.682Z,39.30
2019-04-29T16:35:51.637Z,39.90
2019-04-29T16:38:21.416Z,39.10
2019-04-29T16:40:57.143Z,38.20
2019-04-29T16:43:27.680Z,38.10
2019-04-29T16:46:03.039Z,38.30
2019-04-29T16:48:33.885Z,38.90
2019-04-29T16:51:06.708Z,39.20
2019-04-29T16:53:34.472Z,39.20
2019-04-29T16:56:03.761Z,39.10
2019-04-29T16:58:35.387Z,39.70
2019-04-29T17:01:08.713Z,40.30
2019-04-29T17:03:38.133Z,41.20
2019-04-29T17:06:07.862Z,41.90
2019-04-29T17:08:37.541Z,41.90
2019-04-29T17:11:11.932Z,41.40
2019-04-29T17:13:38.747Z,41.30
2019-04-29T17:16:08.218Z,42.50
2019-04-29T17:18:37.614Z,43.00
2019-04-29T17:21:08.305Z,42.90
2019-04-29T17:23:38.610Z,42.80
2019-04-29T17:26:07.555Z,42.50
2019-04-29T17:28:36.851Z,42.10
2019-04-29T17:31:11.642Z,41.50
2019-04-29T17:33:37.546Z,40.80
2019-04-29T17:36:07.317Z,40.60
2019-04-29T17:38:37.758Z,40.20
2019-04-29T17:41:08.053Z,40.10
2019-04-29T17:43:38.436Z,40.00
2019-04-29T17:46:07.695Z,40.00
2019-04-29T17:48:36.882Z,40.10
2019-04-29T17:51:06.393Z,40.40
2019-04-29T17:53:35.568Z,41.30
2019-04-29T17:56:09.823Z,42.20
2019-04-29T17:58:39.327Z,42.60
2019-04-29T18:01:08.668Z,42.90
2019-04-29T18:03:41.347Z,42.60
2019-04-29T18:06:09.367Z,42.60
2019-04-29T18:08:39.601Z,42.20
2019-04-29T18:11:10.053Z,41.20
2019-04-29T18:13:39.276Z,40.60
2019-04-29T18:16:17.346Z,40.80
2019-04-29T18:18:46.541Z,40.80
2019-04-29T18:21:14.924Z,41.00
2019-04-29T18:23:44.690Z,41.00
2019-04-29T18:26:14.870Z,40.60
2019-04-29T18:28:45.769Z,39.40
2019-04-29T18:31:15.417Z,38.90
2019-04-29T18:33:46.054Z,38.60
2019-04-29T18:36:23.441Z,38.70
2019-04-29T18:38:50.072Z,38.70
2019-04-29T18:41:26.763Z,38.80
2019-04-29T18:43:56.403Z,38.50
2019-04-29T18:46:25.883Z,38.50
2019-04-29T18:49:02.759Z,38.30
2019-04-29T18:51:30.790Z,38.30
2019-04-29T18:54:00.882Z,38.20
2019-04-29T18:56:32.261Z,37.80
2019-04-29T18:59:00.977Z,37.60
2019-04-29T19:01:34.926Z,37.70
2019-04-29T19:04:10.139Z,37.90
2019-04-29T19:06:37.473Z,37.80
2019-04-29T19:09:17.516Z,37.30
2019-04-29T19:11:39.773Z,37.90
2019-04-29T19:14:09.294Z,38.00
2019-04-29T19:16:39.643Z,37.90
2019-04-29T19:19:09.941Z,37.60
2019-04-29T19:21:39.515Z,37.50
2019-04-29T19:24:09.080Z,37.60
2019-04-29T19:26:40.708Z,37.20
2019-04-29T19:29:10.530Z,37.20
2019-04-29T19:31:46.697Z,37.20
2019-04-29T19:34:14.774Z,37.00
2019-04-29T19:36:42.415Z,36.80
2019-04-29T19:39:11.943Z,36.80
2019-04-29T19:41:41.908Z,36.80
2019-04-29T19:44:11.363Z,36.80
2019-04-29T19:46:42.178Z,37.00
2019-04-29T19:49:13.074Z,37.60
2019-04-29T19:51:43.613Z,38.20
2019-04-29T19:54:16.940Z,38.40
2019-04-29T19:56:45.218Z,38.50
2019-04-29T19:59:17.458Z,38.50
2019-04-29T20:01:49.680Z,38.30
2019-04-29T20:04:21.617Z,38.50
2019-04-29T20:06:48.478Z,38.80
2019-04-29T20:09:22.545Z,39.10
2019-04-29T20:11:50.378Z,38.80
2019-04-29T20:14:26.474Z,38.00
2019-04-29T20:16:57.367Z,37.50
2019-04-29T20:19:21.481Z,37.20
2019-04-29T20:21:51.455Z,37.80
2019-04-29T20:24:23.571Z,38.30
2019-04-29T20:26:55.924Z,38.50
2019-04-29T20:29:27.305Z,38.40
2019-04-29T20:31:56.574Z,38.80
2019-04-29T20:34:29.071Z,38.80
2019-04-29T20:36:58.562Z,38.80
2019-04-29T20:39:29.667Z,38.70
2019-04-29T20:42:01.117Z,38.80
2019-04-29T20:44:29.979Z,38.80
2019-04-29T20:47:17.078Z,39.00
2019-04-29T20:49:35.943Z,38.90
2019-04-29T20:52:02.706Z,38.60
2019-04-29T20:54:32.393Z,38.50
2019-04-29T20:57:05.365Z,38.40
2019-04-29T20:59:35.608Z,38.30
2019-04-29T21:02:12.191Z,38.50
2019-04-29T21:04:45.728Z,39.10
2019-04-29T21:07:07.013Z,38.70
2019-04-29T21:09:36.631Z,38.70
2019-04-29T21:12:05.855Z,38.50
2019-04-29T21:14:38.194Z,38.60
2019-04-29T21:17:10.820Z,38.60
2019-04-29T21:19:37.967Z,38.60
2019-04-29T21:22:07.466Z,38.80
2019-04-29T21:24:38.073Z,38.70
2019-04-29T21:27:07.433Z,38.70
2019-04-29T21:29:37.622Z,38.60
2019-04-29T21:32:06.852Z,38.60
2019-04-29T21:34:38.643Z,38.50
2019-04-29T21:37:09.950Z,39.10
2019-04-29T21:39:38.166Z,39.60
2019-04-29T21:42:08.320Z,40.30
2019-04-29T21:44:41.760Z,40.70
2019-04-29T21:47:10.718Z,40.90
2019-04-29T21:49:45.332Z,41.10
2019-04-29T21:52:15.359Z,41.40
2019-04-29T21:54:49.134Z,43.60
2019-04-29T21:57:16.956Z,44.10
2019-04-29T21:59:48.663Z,44.60
2019-04-29T22:02:17.550Z,44.70
2019-04-29T22:04:48.448Z,44.30
2019-04-29T22:07:17.527Z,44.70
2019-04-29T22:09:50.225Z,65.40
2019-04-29T22:12:20.248Z,65.60
2019-04-29T22:14:53.884Z,65.40
2019-04-29T22:17:21.495Z,64.50
2019-04-29T22:19:51.168Z,64.20
2019-04-29T22:22:21.932Z,63.50
2019-04-29T22:24:51.398Z,63.30
2019-04-29T22:27:20.900Z,62.90
2019-04-29T22:29:50.210Z,62.70
2019-04-29T22:32:19.595Z,63.10
2019-04-29T22:34:53.521Z,62.90
2019-04-29T22:37:20.831Z,62.80
2019-04-29T22:39:50.919Z,62.90
2019-04-29T22:42:23.595Z,62.70
2019-04-29T22:44:52.647Z,62.60
